Time;durP1;ratioP1;P1;durP2;ratioP2;P2;SDS_P1;SDS_P2;PMS_P1;PMS_P2;Temp;Humidity;BMP_temperature;BMP_pressure;BME280_temperature;BME280_humidity;BME280_pressure;Samples;Min_cycle;Max_cycle;Signal;HPM_P1;HPM_P2
2021/03/22 00:00:44;;;;;;;15.00;2.10;;;2.80;91.80;;;;;;4953361;28;20041;-75
2021/03/22 00:03:11;;;;;;;25.25;2.33;;;2.80;91.90;;;;;;4949669;28;20047;-75
2021/03/22 00:05:37;;;;;;;17.45;2.47;;;2.70;91.90;;;;;;4949433;28;20089;-75
2021/03/22 00:08:04;;;;;;;14.88;2.42;;;2.70;92.00;;;;;;4948233;28;20974;-75
2021/03/22 00:10:32;;;;;;;16.45;2.13;;;2.80;92.00;;;;;;4949138;28;20042;-75
2021/03/22 00:12:57;;;;;;;22.85;2.13;;;2.70;92.00;;;;;;4947939;28;20491;-74
2021/03/22 00:15:25;;;;;;;21.80;1.83;;;2.60;92.10;;;;;;4949761;28;20117;-75
2021/03/22 00:17:50;;;;;;;22.08;2.78;;;2.60;92.30;;;;;;4946875;28;20043;-75
2021/03/22 00:20:17;;;;;;;18.85;2.40;;;2.60;92.30;;;;;;4944347;28;20495;-75
2021/03/22 00:22:42;;;;;;;16.80;1.83;;;2.60;92.40;;;;;;4944774;28;20046;-75
2021/03/22 00:25:08;;;;;;;13.57;1.90;;;2.60;92.40;;;;;;4949720;28;20062;-74
2021/03/22 00:27:34;;;;;;;16.98;1.90;;;2.60;92.50;;;;;;4948929;28;20039;-76
2021/03/22 00:29:59;;;;;;;23.30;2.20;;;2.60;92.90;;;;;;4949693;28;20042;-75
2021/03/22 00:32:25;;;;;;;27.58;3.00;;;2.60;92.70;;;;;;4949452;28;21945;-75
2021/03/22 00:34:52;;;;;;;14.00;2.25;;;2.70;92.80;;;;;;4948535;28;20045;-75
2021/03/22 00:37:17;;;;;;;17.70;2.15;;;2.70;92.80;;;;;;4950972;28;20054;-75
2021/03/22 00:39:43;;;;;;;21.35;2.90;;;2.70;92.90;;;;;;4942371;28;20031;-76
2021/03/22 00:42:09;;;;;;;23.92;2.13;;;2.70;92.90;;;;;;4947627;28;20101;-76
2021/03/22 00:44:35;;;;;;;16.08;2.30;;;2.70;92.90;;;;;;4950371;28;20034;-75
2021/03/22 00:47:00;;;;;;;17.05;2.78;;;2.70;93.00;;;;;;4954676;28;20403;-74
2021/03/22 00:49:26;;;;;;;21.30;2.92;;;2.70;93.00;;;;;;4955744;28;20038;-75
2021/03/22 00:51:51;;;;;;;23.75;3.42;;;2.70;93.10;;;;;;4951917;28;20513;-75
2021/03/22 00:54:17;;;;;;;22.55;2.53;;;2.70;93.10;;;;;;4957581;28;20491;-75
2021/03/22 00:56:43;;;;;;;17.50;2.88;;;2.70;93.10;;;;;;4957543;28;20033;-76
2021/03/22 00:59:08;;;;;;;21.40;3.45;;;2.70;93.20;;;;;;4951458;28;20050;-75
2021/03/22 01:01:34;;;;;;;18.50;2.33;;;2.70;93.20;;;;;;4959527;28;20118;-76
2021/03/22 01:03:59;;;;;;;18.67;3.92;;;2.70;93.30;;;;;;4947235;28;20034;-75
2021/03/22 01:06:25;;;;;;;26.27;3.38;;;2.70;93.30;;;;;;4950237;28;20867;-75
2021/03/22 01:08:50;;;;;;;27.58;3.03;;;2.70;93.40;;;;;;4948018;28;20055;-75
2021/03/22 01:11:21;;;;;;;25.35;3.45;;;2.70;93.50;;;;;;4949800;28;20034;-74
2021/03/22 01:13:56;;;;;;;24.55;2.85;;;2.70;93.50;;;;;;4949681;28;20031;-75
2021/03/22 01:16:36;;;;;;;25.33;2.97;;;2.70;93.50;;;;;;4951397;28;20042;-75
2021/03/22 01:19:15;;;;;;;32.65;4.18;;;2.70;93.60;;;;;;4948114;28;20134;-75
2021/03/22 01:21:50;;;;;;;20.20;2.65;;;2.80;93.70;;;;;;4947218;28;20042;-75
2021/03/22 01:24:20;;;;;;;22.08;3.10;;;2.80;93.70;;;;;;4948082;28;20029;-75
2021/03/22 01:26:47;;;;;;;18.50;2.85;;;2.80;93.60;;;;;;4944571;28;20518;-75
2021/03/22 01:29:16;;;;;;;20.95;2.60;;;2.80;93.60;;;;;;4939018;28;21818;-75
2021/03/22 01:31:44;;;;;;;16.67;2.90;;;2.80;93.60;;;;;;4950895;28;20050;-75
2021/03/22 01:34:10;;;;;;;29.25;4.95;;;2.80;93.80;;;;;;4947396;28;20035;-75
2021/03/22 01:36:35;;;;;;;22.35;3.55;;;2.70;93.90;;;;;;4948169;28;20404;-75
2021/03/22 01:39:22;;;;;;;20.35;3.60;;;2.70;94.00;;;;;;4950336;28;20046;-75
2021/03/22 01:42:00;;;;;;;21.52;3.35;;;2.80;94.10;;;;;;4950862;28;20526;-75
2021/03/22 01:44:39;;;;;;;17.27;3.80;;;2.80;94.20;;;;;;4950787;28;20129;-75
2021/03/22 01:47:08;;;;;;;36.45;3.50;;;2.80;94.10;;;;;;4949694;28;20101;-75
2021/03/22 01:49:51;;;;;;;18.27;3.30;;;2.70;94.10;;;;;;4948249;28;20026;-75
2021/03/22 01:52:17;;;;;;;27.23;4.70;;;2.70;94.10;;;;;;4948992;28;20046;-75
2021/03/22 01:54:44;;;;;;;22.55;3.65;;;2.70;94.10;;;;;;4948948;28;20089;-75
2021/03/22 01:57:37;;;;;;;17.30;3.33;;;2.70;94.10;;;;;;4950592;28;20074;-75
2021/03/22 02:00:28;;;;;;;25.05;4.22;;;2.60;94.00;;;;;;4953632;28;20027;-75
2021/03/22 02:03:06;;;;;;;11.93;2.72;;;2.50;94.00;;;;;;4948487;28;20983;-75
2021/03/22 02:05:33;;;;;;;26.67;3.35;;;2.40;94.10;;;;;;4948797;28;20035;-75
2021/03/22 02:08:04;;;;;;;16.50;3.58;;;2.40;94.20;;;;;;4940340;28;20043;-75
2021/03/22 02:10:31;;;;;;;22.17;3.85;;;2.30;94.10;;;;;;4959133;28;20051;-74
2021/03/22 02:12:57;;;;;;;15.60;2.70;;;2.20;94.10;;;;;;4939584;28;20491;-75
2021/03/22 02:15:23;;;;;;;20.38;3.33;;;2.10;94.10;;;;;;4947685;28;20126;-74
2021/03/22 02:18:08;;;;;;;20.92;3.40;;;2.00;94.10;;;;;;4936190;28;20047;-75
2021/03/22 02:21:01;;;;;;;20.05;3.67;;;1.90;94.20;;;;;;4936738;28;20027;-75
2021/03/22 02:23:58;;;;;;;18.70;3.17;;;1.80;94.30;;;;;;4950240;28;20500;-75
2021/03/22 02:27:09;;;;;;;26.88;3.13;;;1.70;94.30;;;;;;4942295;28;20546;-75
2021/03/22 02:30:01;;;;;;;26.63;4.10;;;1.70;94.50;;;;;;4946630;28;20034;-75
2021/03/22 02:32:43;;;;;;;27.98;4.07;;;1.60;94.60;;;;;;4949950;28;20166;-75
2021/03/22 02:35:28;;;;;;;32.30;4.25;;;1.60;94.60;;;;;;4940858;28;20119;-75
2021/03/22 02:37:58;;;;;;;22.38;4.03;;;1.60;94.60;;;;;;4941666;28;20043;-75
2021/03/22 02:40:38;;;;;;;19.35;3.55;;;1.60;94.60;;;;;;4940465;28;20086;-74
2021/03/22 02:43:06;;;;;;;25.60;3.55;;;1.60;94.50;;;;;;4939928;28;20110;-74
2021/03/22 02:45:38;;;;;;;28.70;4.70;;;1.50;94.60;;;;;;4954352;28;20035;-75
2021/03/22 02:48:04;;;;;;;;;;;1.50;94.60;;;;;;4966890;28;20019;-75
2021/03/22 02:50:35;;;;;;;16.27;3.65;;;1.40;94.50;;;;;;4954215;28;19922;-75
2021/03/22 02:53:40;;;;;;;23.05;4.25;;;1.30;94.60;;;;;;4966651;28;20445;-75
2021/03/22 02:56:41;;;;;;;18.95;3.58;;;1.30;94.90;;;;;;4887368;29;20433;-75
2021/03/22 02:59:17;;;;;;;17.98;4.20;;;1.20;94.70;;;;;;4959634;28;20034;-75
2021/03/22 03:01:53;;;;;;;21.92;4.88;;;1.20;94.80;;;;;;4973156;28;20114;-75
2021/03/22 03:04:20;;;;;;;19.40;4.85;;;1.20;95.00;;;;;;4969532;28;20051;-75
2021/03/22 03:06:51;;;;;;;29.52;5.43;;;1.20;94.90;;;;;;4959037;28;20073;-75
2021/03/22 03:09:19;;;;;;;25.63;4.80;;;1.20;95.00;;;;;;4964544;28;20054;-75
2021/03/22 03:11:45;;;;;;;17.75;4.13;;;1.20;95.00;;;;;;4969796;28;20030;-75
2021/03/22 03:14:11;;;;;;;34.47;5.40;;;1.30;95.10;;;;;;4976577;28;20030;-75
2021/03/22 03:16:36;;;;;;;20.63;4.85;;;1.30;95.10;;;;;;4966824;28;21134;-75
2021/03/22 03:19:02;;;;;;;34.22;7.72;;;1.40;95.30;;;;;;4972340;28;20089;-75
2021/03/22 03:21:28;;;;;;;17.88;4.85;;;1.50;95.30;;;;;;4975731;28;20039;-75
2021/03/22 03:23:54;;;;;;;23.08;5.68;;;1.60;95.20;;;;;;4971629;28;20078;-75
2021/03/22 03:26:20;;;;;;;30.10;5.60;;;1.70;95.20;;;;;;4971319;28;20026;-75
2021/03/22 03:28:46;;;;;;;27.83;4.82;;;1.70;95.20;;;;;;4973847;28;20062;-75
2021/03/22 03:31:12;;;;;;;26.88;4.25;;;1.80;95.20;;;;;;4968700;28;20015;-75
2021/03/22 03:33:38;;;;;;;21.85;4.80;;;1.90;95.10;;;;;;4968996;28;20115;-75
2021/03/22 03:36:04;;;;;;;27.00;6.05;;;1.90;95.10;;;;;;4968448;28;20030;-75
2021/03/22 03:38:29;;;;;;;15.13;4.18;;;2.00;95.10;;;;;;4974519;28;20042;-75
2021/03/22 03:40:55;;;;;;;28.85;5.53;;;2.00;95.10;;;;;;4971612;28;20094;-75
2021/03/22 03:43:21;;;;;;;28.13;5.93;;;2.00;95.00;;;;;;4967842;28;20093;-75
2021/03/22 03:45:50;;;;;;;19.75;5.88;;;2.10;95.00;;;;;;4955453;28;20129;-75
2021/03/22 03:48:24;;;;;;;26.85;5.25;;;2.20;95.10;;;;;;4973446;28;20023;-75
2021/03/22 03:50:54;;;;;;;22.60;5.72;;;2.20;95.00;;;;;;4972889;28;20507;-75
2021/03/22 03:53:19;;;;;;;24.20;5.32;;;2.30;95.00;;;;;;4976672;28;20559;-75
2021/03/22 03:55:47;;;;;;;31.48;5.65;;;2.30;95.00;;;;;;4972466;28;20031;-75
2021/03/22 03:58:12;;;;;;;30.30;7.00;;;2.40;95.00;;;;;;4961146;28;20046;-75
2021/03/22 04:00:42;;;;;;;23.92;5.95;;;2.50;95.00;;;;;;4965883;28;20038;-75
2021/03/22 04:03:13;;;;;;;28.27;5.70;;;2.50;95.00;;;;;;4973933;28;20046;-75
2021/03/22 04:05:39;;;;;;;27.95;6.80;;;2.60;95.00;;;;;;4971588;28;20078;-75
2021/03/22 04:08:04;;;;;;;29.73;6.93;;;2.70;95.00;;;;;;4973426;28;20031;-75
2021/03/22 04:10:31;;;;;;;33.13;7.50;;;2.70;95.00;;;;;;4965220;28;20050;-75
2021/03/22 04:12:56;;;;;;;32.70;7.45;;;2.80;95.00;;;;;;4973478;28;20451;-75
2021/03/22 04:15:22;;;;;;;26.80;6.72;;;2.90;95.00;;;;;;4973257;28;20065;-75
2021/03/22 04:17:48;;;;;;;31.90;7.78;;;2.90;95.00;;;;;;4969174;28;20035;-75
2021/03/22 04:20:17;;;;;;;30.67;6.22;;;3.00;95.00;;;;;;4969657;28;20491;-74
2021/03/22 04:22:43;;;;;;;39.25;7.20;;;3.00;95.00;;;;;;4973795;28;20499;-76
2021/03/22 04:25:09;;;;;;;21.70;5.85;;;3.10;95.00;;;;;;4970647;28;20058;-75
2021/03/22 04:27:34;;;;;;;21.50;7.50;;;3.10;94.90;;;;;;4971533;28;20034;-75
2021/03/22 04:30:00;;;;;;;36.13;8.48;;;3.10;94.90;;;;;;4973765;28;20035;-76
2021/03/22 04:32:25;;;;;;;33.25;7.00;;;3.20;94.90;;;;;;4955951;28;20027;-75
2021/03/22 04:34:51;;;;;;;33.03;7.05;;;3.20;94.90;;;;;;4975295;28;20438;-76
2021/03/22 04:37:16;;;;;;;31.13;6.63;;;3.20;94.90;;;;;;4970305;28;20057;-76
2021/03/22 04:39:42;;;;;;;34.55;7.35;;;3.20;94.90;;;;;;4974803;28;20026;-76
2021/03/22 04:42:08;;;;;;;37.58;7.13;;;3.30;95.00;;;;;;4953361;28;20098;-75
2021/03/22 04:44:33;;;;;;;27.35;7.43;;;3.30;95.00;;;;;;4989867;28;20027;-76
2021/03/22 04:46:59;;;;;;;29.98;7.07;;;3.40;95.00;;;;;;4963121;28;20039;-76
2021/03/22 04:49:24;;;;;;;33.15;7.45;;;3.40;94.90;;;;;;4971255;28;20031;-76
2021/03/22 04:51:50;;;;;;;47.45;8.95;;;3.50;94.90;;;;;;4966049;28;20063;-75
2021/03/22 04:54:16;;;;;;;49.03;8.55;;;3.50;95.00;;;;;;4969431;28;20394;-76
2021/03/22 04:56:41;;;;;;;44.72;8.00;;;3.60;95.00;;;;;;4971150;28;20038;-76
2021/03/22 04:59:07;;;;;;;31.23;8.07;;;3.60;95.00;;;;;;4970133;28;20026;-73
2021/03/22 05:01:32;;;;;;;32.90;7.65;;;3.70;95.10;;;;;;4970733;28;20493;-73
2021/03/22 05:03:58;;;;;;;27.13;6.07;;;3.70;95.00;;;;;;4969758;28;20041;-75
2021/03/22 05:06:23;;;;;;;34.22;7.45;;;3.80;95.00;;;;;;4966346;28;20026;-75
2021/03/22 05:08:49;;;;;;;38.15;8.20;;;3.80;95.00;;;;;;4966100;28;20071;-76
2021/03/22 05:11:17;;;;;;;35.58;8.35;;;3.90;95.00;;;;;;4969936;28;20049;-73
2021/03/22 05:13:43;;;;;;;36.90;7.97;;;3.90;95.00;;;;;;4978116;28;20480;-76
2021/03/22 05:16:08;;;;;;;36.90;8.77;;;3.90;95.00;;;;;;4967676;28;20034;-74
2021/03/22 05:18:34;;;;;;;36.00;7.60;;;4.00;95.10;;;;;;4965402;28;20041;-73
2021/03/22 05:21:05;;;;;;;36.97;6.93;;;4.00;95.00;;;;;;4965785;28;20086;-74
2021/03/22 05:23:32;;;;;;;33.10;8.07;;;4.10;95.00;;;;;;4970545;28;20053;-75
2021/03/22 05:25:59;;;;;;;44.50;9.48;;;4.10;95.00;;;;;;4971788;28;20018;-76
2021/03/22 05:28:28;;;;;;;44.42;8.60;;;4.10;95.00;;;;;;4971995;28;20085;-74
2021/03/22 05:30:54;;;;;;;33.55;7.65;;;4.10;95.00;;;;;;4972197;28;20547;-73
2021/03/22 05:33:21;;;;;;;40.53;8.23;;;4.10;95.10;;;;;;4973920;28;20217;-73
2021/03/22 05:35:50;;;;;;;35.65;7.50;;;4.10;95.10;;;;;;4973060;28;20031;-73
2021/03/22 05:38:16;;;;;;;38.05;7.82;;;4.10;95.10;;;;;;4971794;28;20039;-75
2021/03/22 05:40:51;;;;;;;43.47;8.30;;;4.20;95.10;;;;;;4974976;28;20088;-75
2021/03/22 05:43:38;;;;;;;43.95;9.20;;;4.20;95.10;;;;;;4971417;28;20031;-73
2021/03/22 05:46:33;;;;;;;36.90;7.82;;;4.20;95.20;;;;;;4973492;28;20023;-76
2021/03/22 05:49:33;;;;;;;45.95;8.23;;;4.20;95.20;;;;;;4960221;28;20039;-75
2021/03/22 05:52:11;;;;;;;43.20;8.82;;;4.20;95.20;;;;;;4959763;28;20050;-75
2021/03/22 05:55:05;;;;;;;29.08;7.22;;;4.20;95.20;;;;;;4964806;28;20645;-75
2021/03/22 05:58:09;;;;;;;43.83;6.85;;;4.30;95.20;;;;;;4968500;28;20535;-75
2021/03/22 06:00:49;;;;;;;35.55;7.30;;;4.30;95.10;;;;;;4966678;28;20026;-74
2021/03/22 06:03:27;;;;;;;46.05;7.90;;;4.30;95.20;;;;;;4968635;28;20058;-73
2021/03/22 06:05:55;;;;;;;39.28;7.05;;;4.30;95.20;;;;;;4970882;28;20387;-74
2021/03/22 06:08:41;;;;;;;34.40;7.28;;;4.40;95.30;;;;;;4965085;28;20039;-74
2021/03/22 06:11:26;;;;;;;33.75;7.22;;;4.40;95.30;;;;;;4965049;28;20037;-74
2021/03/22 06:14:02;;;;;;;39.83;9.05;;;4.50;95.20;;;;;;4967353;28;20024;-74
2021/03/22 06:16:38;;;;;;;37.03;7.25;;;4.50;95.30;;;;;;4969227;28;20630;-74
2021/03/22 06:19:09;;;;;;;34.45;7.10;;;4.50;95.20;;;;;;4970754;28;20031;-74
2021/03/22 06:21:39;;;;;;;34.40;7.60;;;4.60;95.20;;;;;;4968820;28;20391;-74
2021/03/22 06:24:23;;;;;;;29.77;7.38;;;4.60;95.20;;;;;;4969551;28;20031;-73
2021/03/22 06:26:50;;;;;;;33.55;6.68;;;4.70;95.20;;;;;;4971216;28;20458;-73
2021/03/22 06:29:31;;;;;;;39.05;7.25;;;4.70;95.10;;;;;;4966209;28;20063;-73
2021/03/22 06:32:02;;;;;;;39.17;7.70;;;4.70;95.10;;;;;;4970654;28;20058;-74
2021/03/22 06:34:53;;;;;;;32.80;7.28;;;4.80;95.20;;;;;;4971468;28;20104;-74
2021/03/22 06:37:22;;;;;;;39.38;8.18;;;4.80;95.40;;;;;;4960923;28;20118;-73
2021/03/22 06:39:51;;;;;;;28.13;6.53;;;4.90;95.10;;;;;;4968106;28;20160;-73
2021/03/22 06:42:21;;;;;;;31.90;7.20;;;4.90;95.00;;;;;;4959791;28;20034;-74
2021/03/22 06:44:47;;;;;;;35.38;7.38;;;4.90;95.00;;;;;;4957937;28;20023;-74
2021/03/22 06:47:33;;;;;;;29.05;7.43;;;4.90;95.00;;;;;;4962769;28;20042;-74
2021/03/22 06:50:25;;;;;;;32.95;6.40;;;5.00;95.00;;;;;;4946670;28;20030;-74
2021/03/22 06:52:53;;;;;;;27.73;6.07;;;5.00;95.00;;;;;;4962311;28;20057;-73
2021/03/22 06:55:45;;;;;;;34.88;7.95;;;5.00;95.00;;;;;;4961889;28;20031;-73
2021/03/22 06:58:25;;;;;;;32.22;6.65;;;5.10;95.00;;;;;;4965118;28;20093;-73
2021/03/22 07:00:51;;;;;;;31.70;7.18;;;5.20;95.00;;;;;;4973730;28;20035;-75
2021/03/22 07:03:23;;;;;;;35.92;6.75;;;5.30;95.00;;;;;;4967227;28;20038;-74
2021/03/22 07:05:49;;;;;;;;;;;5.30;94.90;;;;;;4973938;28;20078;-75
2021/03/22 07:08:37;;;;;;;34.28;6.07;;;5.40;94.90;;;;;;4973371;28;20290;-75
2021/03/22 07:11:16;;;;;;;34.47;5.95;;;5.40;94.80;;;;;;4973725;28;20423;-75
2021/03/22 07:14:01;;;;;;;28.83;6.93;;;5.50;94.80;;;;;;4970043;28;20059;-74
2021/03/22 07:16:29;;;;;;;28.00;5.72;;;5.60;94.70;;;;;;4973034;28;20119;-74
2021/03/22 07:19:15;;;;;;;29.98;5.25;;;5.60;94.70;;;;;;4967655;28;20022;-73
2021/03/22 07:22:00;;;;;;;33.95;6.88;;;5.70;94.60;;;;;;4955211;28;20038;-73
2021/03/22 07:24:47;;;;;;;23.02;6.30;;;5.70;94.60;;;;;;4972799;28;20027;-73
2021/03/22 07:27:31;;;;;;;27.05;5.65;;;5.80;94.60;;;;;;4971253;28;21399;-73
2021/03/22 07:30:10;;;;;;;29.48;5.22;;;5.90;94.60;;;;;;4963914;28;20026;-73
2021/03/22 07:32:48;;;;;;;25.15;5.28;;;6.00;94.50;;;;;;4973756;28;20023;-73
2021/03/22 07:35:53;;;;;;;36.67;6.35;;;6.10;94.40;;;;;;4968229;28;20043;-73
2021/03/22 07:38:44;;;;;;;29.05;4.10;;;6.10;94.30;;;;;;4944181;28;20057;-74
2021/03/22 07:41:26;;;;;;;21.17;4.90;;;6.20;94.30;;;;;;4953974;28;20054;-74
2021/03/22 07:44:10;;;;;;;;;;;6.30;94.30;;;;;;4959200;28;20031;-75
2021/03/22 07:47:14;;;;;;;13.52;3.38;;;6.40;94.10;;;;;;4975824;28;19906;-75
2021/03/22 07:50:02;;;;;;;16.50;3.00;;;6.40;93.80;;;;;;4954372;28;20145;-75
2021/03/22 07:52:34;;;;;;;20.65;3.50;;;6.40;93.50;;;;;;4977191;28;20026;-75
2021/03/22 07:55:11;;;;;;;17.35;3.05;;;6.40;93.50;;;;;;4976635;28;20030;-75
2021/03/22 07:58:01;;;;;;;24.48;3.60;;;6.40;93.40;;;;;;4976739;28;20035;-74
2021/03/22 08:00:32;;;;;;;17.77;3.25;;;6.40;93.30;;;;;;4965669;28;20101;-75
2021/03/22 08:03:16;;;;;;;19.33;3.65;;;6.50;93.30;;;;;;4976858;28;20057;-74
2021/03/22 08:05:54;;;;;;;21.52;3.08;;;6.50;93.10;;;;;;4975501;28;20034;-75
2021/03/22 08:08:59;;;;;;;20.48;3.30;;;6.60;93.00;;;;;;4966066;28;20015;-74
2021/03/22 08:11:30;;;;;;;13.25;2.65;;;6.60;93.10;;;;;;4957121;29;20039;-75
2021/03/22 08:14:03;;;;;;;16.60;2.60;;;6.70;92.70;;;;;;4970448;28;20031;-74
2021/03/22 08:17:01;;;;;;;20.25;5.13;;;6.70;92.70;;;;;;4976747;28;20058;-74
2021/03/22 08:19:34;;;;;;;11.27;3.00;;;6.70;92.70;;;;;;4976998;28;20511;-73
2021/03/22 08:22:17;;;;;;;13.75;2.63;;;6.80;92.50;;;;;;4976365;28;20026;-74
2021/03/22 08:25:08;;;;;;;13.30;2.15;;;6.90;92.40;;;;;;4972949;28;20399;-75
2021/03/22 08:27:35;;;;;;;14.60;2.38;;;6.90;92.20;;;;;;4972889;28;20031;-72
2021/03/22 08:30:30;;;;;;;11.32;2.10;;;6.80;91.90;;;;;;4974954;28;20026;-72
2021/03/22 08:33:16;;;;;;;10.75;1.67;;;6.80;91.80;;;;;;4973643;28;20093;-73
2021/03/22 08:36:14;;;;;;;9.25;2.20;;;6.90;91.80;;;;;;4972591;28;20356;-73
2021/03/22 08:38:55;;;;;;;17.30;2.38;;;6.90;91.80;;;;;;4963165;28;20053;-73
2021/03/22 08:41:54;;;;;;;16.25;2.97;;;7.00;91.60;;;;;;4974529;28;20023;-74
2021/03/22 08:44:29;;;;;;;16.45;2.65;;;7.00;91.40;;;;;;4959401;28;20097;-73
2021/03/22 08:47:20;;;;;;;12.55;2.42;;;7.10;91.40;;;;;;4965999;28;20054;-76
2021/03/22 08:50:00;;;;;;;11.73;2.30;;;7.20;91.20;;;;;;4968880;28;20046;-74
2021/03/22 08:52:35;;;;;;;14.32;2.28;;;7.30;91.10;;;;;;4961491;28;20078;-74
2021/03/22 08:55:11;;;;;;;6.90;1.75;;;7.30;90.80;;;;;;4973642;28;20027;-74
2021/03/22 08:57:53;;;;;;;8.50;1.70;;;7.30;90.80;;;;;;4973584;28;20030;-73
2021/03/22 09:00:41;;;;;;;9.65;1.70;;;7.30;90.50;;;;;;4971123;28;20027;-74
2021/03/22 09:03:16;;;;;;;9.77;1.65;;;7.20;90.40;;;;;;4975266;28;20110;-74
2021/03/22 09:06:01;;;;;;;6.00;1.17;;;7.20;90.50;;;;;;4980604;28;20546;-74
2021/03/22 09:08:26;;;;;;;5.22;1.45;;;7.20;89.90;;;;;;4956168;28;20028;-74
2021/03/22 09:10:53;;;;;;;6.05;1.08;;;7.10;88.80;;;;;;4965670;28;20050;-73
2021/03/22 09:13:37;;;;;;;6.75;1.38;;;7.10;88.60;;;;;;4975349;28;20031;-74
2021/03/22 09:16:34;;;;;;;6.22;1.20;;;7.00;88.80;;;;;;4989264;28;20051;-74
2021/03/22 09:19:09;;;;;;;5.70;1.20;;;6.90;89.10;;;;;;4971348;28;20435;-74
2021/03/22 09:22:15;;;;;;;4.55;0.60;;;7.10;88.50;;;;;;4968692;28;20023;-72
2021/03/22 09:24:44;;;;;;;3.83;0.52;;;7.30;88.20;;;;;;4966286;28;20436;-74
2021/03/22 09:27:13;;;;;;;6.70;0.55;;;7.40;87.40;;;;;;4969011;28;20030;-74
2021/03/22 09:29:41;;;;;;;3.83;0.70;;;7.80;86.70;;;;;;4973688;28;20027;-74
2021/03/22 09:32:29;;;;;;;3.60;0.63;;;8.00;85.30;;;;;;4972397;28;20034;-74
2021/03/22 09:35:26;;;;;;;4.80;0.60;;;8.20;84.80;;;;;;4972085;28;20077;-74
2021/03/22 09:38:01;;;;;;;2.35;0.40;;;8.40;83.80;;;;;;4974882;28;20034;-72
2021/03/22 09:40:26;;;;;;;2.33;0.40;;;8.40;80.10;;;;;;4969694;28;20026;-74
2021/03/22 09:43:04;;;;;;;1.73;0.40;;;8.30;78.00;;;;;;4974877;28;20114;-74
2021/03/22 09:45:55;;;;;;;3.10;0.30;;;8.30;79.00;;;;;;4975030;28;20041;-75
2021/03/22 09:48:25;;;;;;;3.08;0.47;;;8.40;79.70;;;;;;4963591;28;20130;-75
2021/03/22 09:51:29;;;;;;;2.63;0.50;;;8.60;78.90;;;;;;4971911;28;20158;-75
2021/03/22 09:54:02;;;;;;;4.82;0.40;;;8.70;78.50;;;;;;4974634;28;20475;-73
2021/03/22 09:56:32;;;;;;;3.95;0.52;;;8.80;78.80;;;;;;4973158;28;20074;-73
2021/03/22 09:59:21;;;;;;;1.95;0.40;;;8.90;78.10;;;;;;4973193;28;20479;-74
2021/03/22 10:01:46;;;;;;;7.20;0.60;;;8.90;76.90;;;;;;4958014;29;20074;-74
2021/03/22 10:04:31;;;;;;;1.75;0.47;;;8.80;76.00;;;;;;4973612;28;20037;-74
2021/03/22 10:07:14;;;;;;;4.97;0.60;;;8.60;76.90;;;;;;4978354;28;20106;-74
2021/03/22 10:10:00;;;;;;;;;;;8.40;76.80;;;;;;4960937;28;20044;-73
2021/03/22 10:12:37;;;;;;;3.28;0.40;;;8.30;78.00;;;;;;4936927;29;19913;-74
2021/03/22 10:15:10;;;;;;;4.18;0.60;;;8.30;78.40;;;;;;4936401;28;20027;-73
2021/03/22 10:17:42;;;;;;;2.65;0.50;;;8.30;78.80;;;;;;4953060;28;20070;-74
2021/03/22 10:20:28;;;;;;;2.88;0.40;;;8.30;79.20;;;;;;4946979;28;20020;-73
2021/03/22 10:23:01;;;;;;;3.30;0.47;;;8.40;79.20;;;;;;4954991;29;20073;-74
2021/03/22 10:25:35;;;;;;;3.45;0.40;;;8.50;78.90;;;;;;4938411;28;20059;-74
2021/03/22 10:28:06;;;;;;;3.22;0.35;;;8.50;78.20;;;;;;4964497;28;20074;-74
2021/03/22 10:30:32;;;;;;;1.70;0.20;;;8.60;77.60;;;;;;4950283;28;20059;-74
2021/03/22 10:33:00;;;;;;;1.92;0.30;;;8.60;76.80;;;;;;4935555;29;20045;-74
2021/03/22 10:35:50;;;;;;;2.47;0.20;;;8.70;77.00;;;;;;4935149;28;20028;-74
2021/03/22 10:38:20;;;;;;;2.35;0.20;;;8.80;76.70;;;;;;4932914;29;20504;-74
2021/03/22 10:40:46;;;;;;;0.40;0.17;;;8.80;75.00;;;;;;4946212;28;20480;-74
2021/03/22 10:43:31;;;;;;;1.23;0.20;;;8.80;74.50;;;;;;4938306;28;20023;-74
2021/03/22 10:46:18;;;;;;;2.67;0.47;;;8.80;74.90;;;;;;4947165;28;20043;-74
2021/03/22 10:48:46;;;;;;;0.65;0.10;;;8.80;75.70;;;;;;4945716;28;20059;-74
2021/03/22 10:51:18;;;;;;;1.30;0.15;;;9.00;74.30;;;;;;4948408;28;20032;-74
2021/03/22 10:53:54;;;;;;;0.75;0.10;;;9.20;74.40;;;;;;4945294;28;20027;-74
2021/03/22 10:56:24;;;;;;;1.70;0.10;;;9.40;73.40;;;;;;4946265;29;20039;-74
2021/03/22 10:58:50;;;;;;;2.45;0.20;;;9.70;73.30;;;;;;4937506;28;20036;-74
2021/03/22 11:01:19;;;;;;;4.60;0.90;;;10.00;72.50;;;;;;4956644;28;20038;-74
2021/03/22 11:03:48;;;;;;;1.20;0.30;;;10.30;71.70;;;;;;4953829;29;20468;-74
2021/03/22 11:06:33;;;;;;;1.10;0.17;;;10.30;70.30;;;;;;4944965;29;20094;-74
2021/03/22 11:09:03;;;;;;;0.88;0.20;;;10.10;69.40;;;;;;4937300;28;20393;-74
2021/03/22 11:11:31;;;;;;;0.65;0.15;;;9.80;68.50;;;;;;4954752;28;20027;-74
2021/03/22 11:14:02;;;;;;;2.75;0.13;;;9.60;68.80;;;;;;4964298;28;20066;-74
2021/03/22 11:16:31;;;;;;;2.17;0.20;;;9.40;69.10;;;;;;4969077;28;20034;-73
2021/03/22 11:18:59;;;;;;;1.02;0.20;;;9.30;69.30;;;;;;4962877;28;20501;-74
2021/03/22 11:21:28;;;;;;;2.80;0.20;;;9.20;69.50;;;;;;4965970;28;20122;-74
2021/03/22 11:23:56;;;;;;;3.58;0.20;;;9.20;69.90;;;;;;4976571;28;20050;-74
2021/03/22 11:26:30;;;;;;;0.90;0.10;;;9.10;69.70;;;;;;4975387;28;20053;-73
2021/03/22 11:29:14;;;;;;;0.65;0.10;;;9.00;69.60;;;;;;4974340;28;20376;-74
2021/03/22 11:31:43;;;;;;;1.48;0.10;;;9.00;69.20;;;;;;4969123;28;20027;-73
2021/03/22 11:34:17;;;;;;;1.20;0.17;;;9.00;69.40;;;;;;4971767;28;20034;-74
2021/03/22 11:36:45;;;;;;;0.95;0.15;;;9.00;69.20;;;;;;4968584;28;20071;-74
2021/03/22 11:39:23;;;;;;;1.60;0.20;;;9.00;69.70;;;;;;4986461;28;20066;-74
2021/03/22 11:41:55;;;;;;;1.75;0.17;;;9.00;69.60;;;;;;4980602;28;20049;-73
2021/03/22 11:44:33;;;;;;;2.08;0.20;;;9.10;69.40;;;;;;4972695;28;20031;-74
2021/03/22 11:47:34;;;;;;;0.90;0.20;;;9.20;69.30;;;;;;4970175;28;20360;-73
2021/03/22 11:49:59;;;;;;;2.15;0.20;;;9.30;69.60;;;;;;4957879;28;20042;-74
2021/03/22 11:52:32;;;;;;;1.23;0.20;;;9.30;69.20;;;;;;4967158;28;20105;-75
2021/03/22 11:55:06;;;;;;;0.43;0.17;;;9.30;69.30;;;;;;4976839;28;20031;-74
2021/03/22 11:57:38;;;;;;;2.70;0.20;;;9.30;69.50;;;;;;4976783;28;20042;-74
2021/03/22 12:00:07;;;;;;;2.38;0.20;;;9.30;69.10;;;;;;4988364;28;20019;-73
2021/03/22 12:02:49;;;;;;;1.23;0.20;;;9.20;68.90;;;;;;4976444;28;20036;-74
2021/03/22 12:05:29;;;;;;;0.90;0.20;;;9.20;68.60;;;;;;4989387;28;20031;-74
2021/03/22 12:07:55;;;;;;;1.67;0.20;;;9.20;69.00;;;;;;4976792;28;20114;-74
2021/03/22 12:10:31;;;;;;;0.50;0.20;;;9.30;68.50;;;;;;4967974;28;20073;-73
2021/03/22 12:13:02;;;;;;;2.83;0.20;;;9.30;68.20;;;;;;5010474;23;20100;-77
2021/03/22 12:15:29;;;;;;;0.73;0.20;;;9.40;67.90;;;;;;5019078;28;20026;-77
2021/03/22 12:18:06;;;;;;;1.85;0.30;;;9.50;68.30;;;;;;5012735;28;20034;-76
2021/03/22 12:20:35;;;;;;;1.30;0.20;;;9.60;68.10;;;;;;5011254;28;20046;-76
2021/03/22 12:23:02;;;;;;;1.92;0.20;;;9.70;67.80;;;;;;5017549;28;20014;-75
2021/03/22 12:25:31;;;;;;;1.60;0.17;;;9.80;66.70;;;;;;5014708;28;20022;-76
2021/03/22 12:27:57;;;;;;;0.65;0.20;;;9.70;66.20;;;;;;5014622;28;20014;-75
2021/03/22 12:30:25;;;;;;;1.20;0.30;;;9.70;66.60;;;;;;5030113;28;20422;-74
2021/03/22 12:32:50;;;;;;;2.95;0.20;;;9.70;66.00;;;;;;5033172;28;20157;-75
2021/03/22 12:35:25;;;;;;;2.25;0.20;;;9.70;66.40;;;;;;5030170;28;20037;-75
2021/03/22 12:37:51;;;;;;;2.95;0.20;;;9.70;65.60;;;;;;5034512;28;20167;-77
2021/03/22 12:40:17;;;;;;;1.23;0.20;;;9.70;65.40;;;;;;5045867;28;20107;-77
2021/03/22 12:42:45;;;;;;;2.00;0.20;;;9.70;65.60;;;;;;5036101;28;20598;-76
2021/03/22 12:45:24;;;;;;;2.38;0.20;;;9.80;65.30;;;;;;5033726;28;20463;-77
2021/03/22 12:47:51;;;;;;;0.63;0.10;;;9.80;65.60;;;;;;5033954;28;20073;-75
2021/03/22 12:50:37;;;;;;;1.73;0.20;;;9.90;65.70;;;;;;5033934;28;20034;-75
2021/03/22 12:53:03;;;;;;;2.47;0.20;;;10.00;65.50;;;;;;5036753;28;20029;-75
2021/03/22 12:55:31;;;;;;;0.80;0.20;;;10.00;65.00;;;;;;5037393;28;20085;-75
2021/03/22 12:58:00;;;;;;;1.27;0.20;;;10.00;64.70;;;;;;5046504;28;20021;-75
2021/03/22 13:00:35;;;;;;;3.25;0.30;;;9.90;64.80;;;;;;5034907;28;20381;-76
2021/03/22 13:03:00;;;;;;;1.20;0.28;;;10.00;65.10;;;;;;5034123;28;20025;-77
2021/03/22 13:05:29;;;;;;;1.05;0.30;;;10.00;65.40;;;;;;5014635;28;20030;-77
2021/03/22 13:07:55;;;;;;;1.90;0.30;;;10.10;65.10;;;;;;5029094;28;20076;-77
2021/03/22 13:10:26;;;;;;;1.75;0.20;;;10.10;64.50;;;;;;5020898;28;20511;-76
2021/03/22 13:12:53;;;;;;;1.20;0.20;;;10.00;64.90;;;;;;5028372;28;20045;-75
2021/03/22 13:15:27;;;;;;;2.00;0.20;;;9.90;64.70;;;;;;5012752;28;20476;-77
2021/03/22 13:17:54;;;;;;;2.17;0.28;;;9.90;65.10;;;;;;5031887;28;20036;-76
2021/03/22 13:20:21;;;;;;;1.92;0.20;;;9.90;65.00;;;;;;5015952;28;20032;-76
2021/03/22 13:22:47;;;;;;;0.95;0.20;;;10.00;65.40;;;;;;5035177;28;20505;-76
2021/03/22 13:25:16;;;;;;;0.60;0.10;;;10.10;64.80;;;;;;5051663;28;20033;-76